THY392 LTAI-LBSF
Flight info
| Callsign | THY392 |
|---|---|
| Flight time | 0h 42m |
| Altitude | 38000 |
| Route | EKNUD1F EKNUD UQ26 BKZ UL615 VADEN Y520 GOL GOL6D |
| Aircraft | A20N/M-SDE2E3FGHIRWXY/LB1 |
Departure
| Time | 2026-05-06 08:53 |
|---|---|
| Airport | Antalya International Airport (LTAI) |
Arrival
| Time | 2026-05-06 09:35 |
|---|---|
| Airport | Sofia Airport (LBSF) |
| Time | Latitude | Longitude | Altitude | Speed | Heading |
|---|---|---|---|---|---|
| 2026-05-06 08:42 | 36.89280 | 30.80532 | 179 ft | 0 kts | 7° |
| 2026-05-06 08:47 | 36.89278 | 30.80532 | 179 ft | 2 kts | 7° |
| 2026-05-06 08:47 | 36.89262 | 30.80529 | 179 ft | 2 kts | 11° |
| 2026-05-06 08:47 | 36.89249 | 30.80525 | 179 ft | 2 kts | 14° |
| 2026-05-06 08:47 | 36.89233 | 30.80519 | 178 ft | 2 kts | 24° |
| 2026-05-06 08:48 | 36.89219 | 30.80508 | 178 ft | 2 kts | 52° |
| 2026-05-06 08:48 | 36.89215 | 30.80490 | 179 ft | 1 kts | 96° |
| 2026-05-06 08:48 | 36.89215 | 30.80487 | 179 ft | 0 kts | 98° |
| 2026-05-06 08:48 | 36.89214 | 30.80494 | 179 ft | 0 kts | 97° |
| 2026-05-06 08:50 | 36.89211 | 30.80526 | 178 ft | 12 kts | 97° |
| 2026-05-06 08:50 | 36.89154 | 30.80640 | 177 ft | 19 kts | 185° |
| 2026-05-06 08:51 | 36.88985 | 30.80608 | 177 ft | 26 kts | 187° |
| 2026-05-06 08:51 | 36.88804 | 30.80581 | 176 ft | 26 kts | 185° |
| 2026-05-06 08:51 | 36.88626 | 30.80556 | 175 ft | 24 kts | 186° |
| 2026-05-06 08:51 | 36.88573 | 30.80635 | 175 ft | 13 kts | 58° |
| 2026-05-06 08:52 | 36.88649 | 30.80710 | 176 ft | 16 kts | 36° |
| 2026-05-06 08:52 | 36.88749 | 30.80781 | 176 ft | 17 kts | 24° |
| 2026-05-06 08:52 | 36.88883 | 30.80827 | 177 ft | 31 kts | 8° |
| 2026-05-06 08:52 | 36.89333 | 30.80890 | 177 ft | 104 kts | 5° |
| 2026-05-06 08:53 | 36.90317 | 30.81029 | 227 ft | 173 kts | 5° |
| 2026-05-06 08:53 | 36.91570 | 30.81199 | 844 ft | 187 kts | 6° |
| 2026-05-06 08:53 | 36.92882 | 30.81706 | 1363 ft | 211 kts | 21° |
| 2026-05-06 08:53 | 36.94356 | 30.82496 | 1592 ft | 250 kts | 23° |
| 2026-05-06 08:54 | 36.96018 | 30.83391 | 2001 ft | 264 kts | 22° |
| 2026-05-06 08:54 | 36.97744 | 30.84290 | 2630 ft | 272 kts | 21° |
| 2026-05-06 08:54 | 36.99474 | 30.85164 | 3806 ft | 265 kts | 21° |
| 2026-05-06 08:54 | 37.01181 | 30.86010 | 4964 ft | 264 kts | 21° |
| 2026-05-06 08:55 | 37.02897 | 30.86854 | 6032 ft | 267 kts | 21° |
| 2026-05-06 08:55 | 37.04640 | 30.87707 | 7025 ft | 271 kts | 21° |
| 2026-05-06 08:55 | 37.06423 | 30.88511 | 8029 ft | 273 kts | 14° |
| 2026-05-06 08:55 | 37.08314 | 30.88730 | 9004 ft | 275 kts | 355° |
| 2026-05-06 08:56 | 37.10218 | 30.88390 | 9681 ft | 278 kts | 348° |
| 2026-05-06 08:56 | 37.12122 | 30.87906 | 9976 ft | 280 kts | 348° |
| 2026-05-06 08:56 | 37.14040 | 30.87441 | 10036 ft | 282 kts | 353° |
| 2026-05-06 08:56 | 37.16010 | 30.87212 | 10569 ft | 286 kts | 355° |
| 2026-05-06 08:57 | 37.18002 | 30.87039 | 11545 ft | 287 kts | 355° |
| 2026-05-06 08:57 | 37.20327 | 30.86867 | 12697 ft | 289 kts | 355° |
| 2026-05-06 08:57 | 37.24358 | 30.86595 | 14604 ft | 292 kts | 355° |
| 2026-05-06 08:57 | 37.28470 | 30.86333 | 16210 ft | 299 kts | 355° |
| 2026-05-06 08:58 | 37.33356 | 30.86028 | 18055 ft | 308 kts | 355° |
| 2026-05-06 08:58 | 37.42046 | 30.85486 | 20974 ft | 316 kts | 355° |
| 2026-05-06 08:58 | 37.50979 | 30.84927 | 23686 ft | 326 kts | 354° |
| 2026-05-06 08:58 | 37.60284 | 30.84341 | 25373 ft | 348 kts | 355° |
| 2026-05-06 08:59 | 37.70273 | 30.83715 | 26852 ft | 370 kts | 355° |
| 2026-05-06 08:59 | 37.80724 | 30.83057 | 28264 ft | 388 kts | 355° |
| 2026-05-06 08:59 | 37.91736 | 30.82362 | 29624 ft | 403 kts | 355° |
| 2026-05-06 08:59 | 38.02973 | 30.81650 | 30816 ft | 415 kts | 355° |
| 2026-05-06 09:00 | 38.14654 | 30.80854 | 31890 ft | 425 kts | 353° |
| 2026-05-06 09:00 | 38.26393 | 30.78818 | 33152 ft | 427 kts | 350° |
| 2026-05-06 09:00 | 38.38223 | 30.76848 | 34357 ft | 428 kts | 350° |
| 2026-05-06 09:00 | 38.50054 | 30.74892 | 35323 ft | 429 kts | 350° |
| 2026-05-06 09:01 | 38.61892 | 30.72923 | 36258 ft | 429 kts | 350° |
| 2026-05-06 09:01 | 38.73743 | 30.70947 | 37160 ft | 429 kts | 350° |
| 2026-05-06 09:01 | 38.85526 | 30.68671 | 37956 ft | 426 kts | 340° |
| 2026-05-06 09:01 | 38.93511 | 30.62607 | 38101 ft | 429 kts | 328° |
| 2026-05-06 09:02 | 38.98967 | 30.59574 | 38099 ft | 425 kts | 334° |
| 2026-05-06 09:02 | 39.29757 | 30.39842 | 38092 ft | 427 kts | 332° |
| 2026-05-06 09:03 | 39.50740 | 30.26087 | 38090 ft | 426 kts | 333° |
| 2026-05-06 09:03 | 39.72564 | 30.14521 | 38087 ft | 427 kts | 336° |
| 2026-05-06 09:04 | 39.94156 | 30.02909 | 38088 ft | 426 kts | 336° |
| 2026-05-06 09:04 | 40.16099 | 29.91040 | 38096 ft | 427 kts | 336° |
| 2026-05-06 09:05 | 40.38092 | 29.79056 | 38098 ft | 427 kts | 336° |
| 2026-05-06 09:05 | 40.57833 | 29.68226 | 38095 ft | 426 kts | 336° |
| 2026-05-06 09:06 | 40.70929 | 29.58441 | 38098 ft | 426 kts | 321° |
| 2026-05-06 09:06 | 40.89548 | 29.38956 | 38106 ft | 426 kts | 321° |
| 2026-05-06 09:07 | 41.08055 | 29.19266 | 38095 ft | 426 kts | 321° |
| 2026-05-06 09:07 | 41.15864 | 29.07633 | 38103 ft | 428 kts | 297° |
| 2026-05-06 09:07 | 41.22757 | 28.95047 | 38102 ft | 425 kts | 318° |
| 2026-05-06 09:07 | 41.28107 | 28.84486 | 38108 ft | 430 kts | 287° |
| 2026-05-06 09:08 | 41.30393 | 28.77225 | 38110 ft | 425 kts | 308° |
| 2026-05-06 09:08 | 41.37450 | 28.64548 | 38101 ft | 428 kts | 306° |
| 2026-05-06 09:09 | 41.44033 | 28.51338 | 38100 ft | 427 kts | 304° |
| 2026-05-06 09:09 | 41.64218 | 28.10054 | 38098 ft | 425 kts | 304° |
| 2026-05-06 09:10 | 41.77015 | 27.83591 | 38089 ft | 426 kts | 304° |
| 2026-05-06 09:10 | 41.89848 | 27.56834 | 38083 ft | 426 kts | 304° |
| 2026-05-06 09:10 | 42.02460 | 27.29465 | 37459 ft | 436 kts | 284° |
| 2026-05-06 09:11 | 42.03412 | 27.25673 | 37793 ft | 420 kts | 296° |
| 2026-05-06 09:11 | 42.06959 | 27.18808 | 38523 ft | 410 kts | 308° |
| 2026-05-06 09:11 | 42.10579 | 27.10608 | 38117 ft | 431 kts | 299° |
| 2026-05-06 09:12 | 42.20898 | 26.81806 | 38074 ft | 425 kts | 297° |
| 2026-05-06 09:12 | 42.35057 | 26.41917 | 38073 ft | 425 kts | 297° |
| 2026-05-06 09:13 | 42.44587 | 26.14730 | 38072 ft | 424 kts | 297° |
| 2026-05-06 09:13 | 42.54618 | 25.85826 | 38057 ft | 423 kts | 297° |
| 2026-05-06 09:14 | 42.64546 | 25.56921 | 38043 ft | 421 kts | 297° |
| 2026-05-06 09:14 | 42.75289 | 25.25301 | 38029 ft | 420 kts | 297° |
| 2026-05-06 09:15 | 42.80742 | 25.09111 | 38028 ft | 421 kts | 297° |
| 2026-05-06 09:15 | 42.83167 | 25.01876 | 37870 ft | 418 kts | 297° |
| 2026-05-06 09:15 | 42.84377 | 24.98261 | 37140 ft | 420 kts | 297° |
| 2026-05-06 09:16 | 42.85586 | 24.94643 | 36495 ft | 420 kts | 297° |
| 2026-05-06 09:16 | 42.86794 | 24.91025 | 35868 ft | 419 kts | 297° |
| 2026-05-06 09:16 | 42.87982 | 24.87459 | 35210 ft | 420 kts | 297° |
| 2026-05-06 09:16 | 42.89191 | 24.83828 | 34525 ft | 421 kts | 297° |
| 2026-05-06 09:17 | 42.90406 | 24.80174 | 33768 ft | 423 kts | 297° |
| 2026-05-06 09:17 | 42.91623 | 24.76513 | 32972 ft | 424 kts | 297° |
| 2026-05-06 09:17 | 42.92838 | 24.72849 | 32219 ft | 424 kts | 297° |
| 2026-05-06 09:17 | 42.94053 | 24.69181 | 31448 ft | 425 kts | 296° |
| 2026-05-06 09:18 | 42.95268 | 24.65505 | 30675 ft | 426 kts | 296° |
| 2026-05-06 09:18 | 42.96491 | 24.61803 | 29816 ft | 429 kts | 296° |
| 2026-05-06 09:18 | 42.97718 | 24.58080 | 28882 ft | 431 kts | 296° |
| 2026-05-06 09:18 | 42.98952 | 24.54333 | 27977 ft | 432 kts | 296° |
| 2026-05-06 09:19 | 43.00185 | 24.50584 | 27064 ft | 434 kts | 296° |
| 2026-05-06 09:19 | 43.01423 | 24.46812 | 26119 ft | 436 kts | 295° |
| 2026-05-06 09:19 | 43.02663 | 24.43033 | 25412 ft | 433 kts | 295° |
| 2026-05-06 09:19 | 43.04943 | 24.36058 | 24176 ft | 427 kts | 295° |
| 2026-05-06 09:20 | 43.06475 | 24.31349 | 23191 ft | 426 kts | 294° |
| 2026-05-06 09:20 | 43.07401 | 24.27506 | 22469 ft | 425 kts | 283° |
| 2026-05-06 09:20 | 43.07658 | 24.23511 | 21840 ft | 422 kts | 269° |
| 2026-05-06 09:20 | 43.07139 | 24.19570 | 21144 ft | 422 kts | 253° |
| 2026-05-06 09:21 | 43.05876 | 24.15955 | 20380 ft | 424 kts | 239° |
| 2026-05-06 09:21 | 43.04144 | 24.12711 | 19265 ft | 432 kts | 233° |
| 2026-05-06 09:21 | 43.02231 | 24.09498 | 18278 ft | 437 kts | 231° |
| 2026-05-06 09:21 | 43.00304 | 24.06299 | 17372 ft | 434 kts | 231° |
| 2026-05-06 09:22 | 42.98406 | 24.03134 | 16622 ft | 427 kts | 231° |
| 2026-05-06 09:22 | 42.96544 | 24.00008 | 15894 ft | 421 kts | 232° |
| 2026-05-06 09:22 | 42.94712 | 23.96922 | 15161 ft | 416 kts | 231° |
| 2026-05-06 09:22 | 42.92917 | 23.93901 | 14861 ft | 400 kts | 231° |
| 2026-05-06 09:23 | 42.91207 | 23.91019 | 14723 ft | 381 kts | 232° |
| 2026-05-06 09:23 | 42.89587 | 23.88290 | 14590 ft | 358 kts | 232° |
| 2026-05-06 09:23 | 42.88076 | 23.85745 | 14449 ft | 333 kts | 232° |
| 2026-05-06 09:23 | 42.86660 | 23.83363 | 14314 ft | 312 kts | 232° |
| 2026-05-06 09:24 | 42.85322 | 23.81150 | 14176 ft | 293 kts | 227° |
| 2026-05-06 09:24 | 42.83802 | 23.79487 | 14030 ft | 277 kts | 206° |
| 2026-05-06 09:24 | 42.82013 | 23.78763 | 13878 ft | 260 kts | 188° |
| 2026-05-06 09:24 | 42.80243 | 23.78496 | 13691 ft | 257 kts | 185° |
| 2026-05-06 09:25 | 42.78457 | 23.78575 | 13328 ft | 258 kts | 168° |
| 2026-05-06 09:25 | 42.76833 | 23.79574 | 13021 ft | 257 kts | 141° |
| 2026-05-06 09:25 | 42.75748 | 23.81460 | 12684 ft | 255 kts | 112° |
| 2026-05-06 09:25 | 42.75339 | 23.83788 | 12389 ft | 254 kts | 97° |
| 2026-05-06 09:26 | 42.75175 | 23.86179 | 12055 ft | 253 kts | 94° |
| 2026-05-06 09:26 | 42.75050 | 23.88563 | 11718 ft | 252 kts | 94° |
| 2026-05-06 09:26 | 42.74920 | 23.90932 | 11392 ft | 251 kts | 94° |
| 2026-05-06 09:26 | 42.74772 | 23.93287 | 11016 ft | 251 kts | 97° |
| 2026-05-06 09:27 | 42.74269 | 23.95541 | 10706 ft | 248 kts | 119° |
| 2026-05-06 09:27 | 42.73111 | 23.97219 | 10413 ft | 245 kts | 149° |
| 2026-05-06 09:27 | 42.71511 | 23.97910 | 10115 ft | 243 kts | 176° |
| 2026-05-06 09:27 | 42.69820 | 23.97855 | 9781 ft | 243 kts | 186° |
| 2026-05-06 09:28 | 42.68204 | 23.97261 | 9436 ft | 241 kts | 208° |
| 2026-05-06 09:28 | 42.66961 | 23.95786 | 9153 ft | 238 kts | 237° |
| 2026-05-06 09:28 | 42.66431 | 23.93695 | 8837 ft | 236 kts | 265° |
| 2026-05-06 09:28 | 42.66464 | 23.91474 | 8493 ft | 235 kts | 275° |
| 2026-05-06 09:29 | 42.66610 | 23.90020 | 8293 ft | 235 kts | 278° |
| 2026-05-06 09:29 | 42.66931 | 23.87078 | 7881 ft | 236 kts | 277° |
| 2026-05-06 09:29 | 42.67056 | 23.85615 | 7648 ft | 235 kts | 275° |
| 2026-05-06 09:29 | 42.67196 | 23.83406 | 7323 ft | 234 kts | 274° |
| 2026-05-06 09:30 | 42.67312 | 23.81199 | 7012 ft | 233 kts | 273° |
| 2026-05-06 09:30 | 42.67435 | 23.79004 | 6712 ft | 233 kts | 274° |
| 2026-05-06 09:30 | 42.67564 | 23.76816 | 6642 ft | 233 kts | 274° |
| 2026-05-06 09:30 | 42.67696 | 23.74643 | 6462 ft | 230 kts | 273° |
| 2026-05-06 09:31 | 42.67826 | 23.72461 | 6065 ft | 233 kts | 274° |
| 2026-05-06 09:31 | 42.67956 | 23.70254 | 5661 ft | 234 kts | 274° |
| 2026-05-06 09:31 | 42.68086 | 23.68046 | 5287 ft | 234 kts | 274° |
| 2026-05-06 09:31 | 42.68216 | 23.65844 | 4905 ft | 233 kts | 274° |
| 2026-05-06 09:32 | 42.68346 | 23.63664 | 4567 ft | 229 kts | 274° |
| 2026-05-06 09:32 | 42.68473 | 23.61540 | 4349 ft | 219 kts | 274° |
| 2026-05-06 09:32 | 42.68592 | 23.59524 | 4145 ft | 212 kts | 274° |
| 2026-05-06 09:32 | 42.68707 | 23.57550 | 3876 ft | 208 kts | 274° |
| 2026-05-06 09:33 | 42.68824 | 23.55625 | 3692 ft | 200 kts | 274° |
| 2026-05-06 09:33 | 42.68931 | 23.53793 | 3579 ft | 189 kts | 274° |
| 2026-05-06 09:33 | 42.69038 | 23.51995 | 3181 ft | 191 kts | 275° |
| 2026-05-06 09:33 | 42.69144 | 23.50202 | 2717 ft | 191 kts | 275° |
| 2026-05-06 09:34 | 42.69249 | 23.48442 | 2436 ft | 175 kts | 275° |
| 2026-05-06 09:34 | 42.69342 | 23.46851 | 2213 ft | 159 kts | 275° |
| 2026-05-06 09:34 | 42.69423 | 23.45366 | 1992 ft | 156 kts | 276° |
| 2026-05-06 09:34 | 42.69517 | 23.43937 | 1816 ft | 148 kts | 275° |
| 2026-05-06 09:35 | 42.69596 | 23.42643 | 1749 ft | 117 kts | 274° |
| 2026-05-06 09:35 | 42.69631 | 23.42025 | 1753 ft | 32 kts | 274° |
| 2026-05-06 09:35 | 42.69628 | 23.41729 | 1754 ft | 30 kts | 258° |
| 2026-05-06 09:35 | 42.69558 | 23.41488 | 1747 ft | 24 kts | 244° |
| 2026-05-06 09:36 | 42.69503 | 23.41333 | 1746 ft | 16 kts | 246° |
| 2026-05-06 09:36 | 42.69446 | 23.41215 | 1749 ft | 15 kts | 200° |
| 2026-05-06 09:36 | 42.69346 | 23.41184 | 1750 ft | 15 kts | 192° |
| 2026-05-06 09:36 | 42.69222 | 23.41151 | 1753 ft | 20 kts | 192° |
| 2026-05-06 09:37 | 42.69118 | 23.41064 | 1747 ft | 17 kts | 250° |
| 2026-05-06 09:37 | 42.69073 | 23.40974 | 1748 ft | 9 kts | 178° |
| 2026-05-06 09:37 | 42.69008 | 23.41004 | 1751 ft | 7 kts | 161° |
| 2026-05-06 09:37 | 42.69004 | 23.41006 | 1743 ft | 0 kts | 162° |